NCAR-RAP Real-Time Weather Data

Output produced by METARs form (23 February 2020  00:28 UTC)
found at http://weather.rap.ucar.edu/surface/
 
KPVD 222351Z 25004KT 10SM CLR 04/M12 A3015 RMK AO2 SLP209 T00441117 10089 20044 53019
KPVD 222251Z COR 28006KT 10SM FEW300 06/M12 A3012 RMK AO2 SLP200 T00611122
KPVD 222151Z 27009KT 10SM FEW300 07/M13 A3010 RMK AO2 SLP192 T00721128
KPVD 222051Z 26010KT 10SM CLR 08/M12 A3009 RMK AO2 SLP191 T00831122 56009
KPVD 221951Z 28014KT 10SM CLR 09/M13 A3010 RMK AO2 SLP191 T00891128
KPVD 221851Z 26012KT 10SM CLR 08/M13 A3010 RMK AO2 SLP192 T00831128
KPVD 221751Z 25009G18KT 10SM CLR 08/M14 A3012 RMK AO2 SLP200 T00781139 10083 21039 58032
KPVD 221651Z 24010G17KT 10SM CLR 07/M13 A3016 RMK AO2 SLP212 T00721128
KPVD 221551Z 26006G17KT 10SM FEW300 06/M12 A3019 RMK AO2 SLP222 T00561122
KPVD 221451Z 29012KT 10SM BKN300 03/M12 A3022 RMK AO2 SLP232 T00331122 58002
KPVD 221351Z 29010KT 10SM SCT300 02/M13 A3023 RMK AO2 SLP236 T00221133
KPVD 221251Z 24005KT 10SM FEW300 M01/M12 A3023 RMK AO2 SLP237 T10111122
KPVD 221151Z 24005KT 10SM CLR M03/M12 A3022 RMK AO2 SLP234 T10331122 11017 21039 53006
KPVD 221051Z 24008KT 10SM CLR M03/M12 A3021 RMK AO2 SLP231 T10281122
KPVD 220951Z 25006KT 10SM CLR M02/M12 A3021 RMK AO2 SLP231 T10221117
KPVD 220851Z 23008KT 10SM CLR M03/M12 A3021 RMK AO2 SLP229 T10281122 57021
KPVD 220751Z 24006KT 10SM CLR M03/M12 A3022 RMK AO2 SLP233 T10281117
KPVD 220651Z 24005KT 10SM CLR M03/M12 A3026 RMK AO2 SLP245 T10331117
KPVD 220551Z 23008KT 10SM CLR M02/M12 A3027 RMK AO2 SLP250 T10221122 11017 21050 56024
KPVD 220451Z 22006KT 10SM CLR M04/M14 A3028 RMK AO2 SLP255 LAST T10391144 400061089
KPVD 220351Z 21005KT 10SM CLR M04/M14 A3031 RMK AO2 SLP265 T10441139
KPVD 220251Z 23003KT 10SM CLR M04/M15 A3034 RMK AO2 SLP274 T10391150 58011
KPVD 220151Z 22005KT 10SM CLR M05/M16 A3036 RMK AO2 SLP281 T10501156
KPVD 220051Z 21006KT 10SM CLR M04/M14 A3036 RMK AO2 SLP282 T10441139
KPVD 212351Z 20006KT 10SM CLR M04/M13 A3037 RMK AO2 SLP285 T10391128 10006 21039 57002
KPVD 212251Z 18006KT 10SM CLR M03/M14 A3038 RMK AO2 SLP287 T10281144
KPVD 212151Z 15007KT 10SM FEW025 M02/M16 A3038 RMK AO2 SLP286 T10171161
KPVD 212051Z 30004KT 10SM FEW025 01/M21 A3038 RMK AO2 SLP287 T00061211 56018
KPVD 211951Z VRB05KT 10SM FEW025 00/M21 A3039 RMK AO2 SLP291 T00001206
KPVD 211851Z VRB05KT 10SM FEW025 M02/M20 A3041 RMK AO2 SLP298 T10171200
KPVD 211751Z COR 10SM FEW025 M02/M17 A3043 RMK AO2 SLP305 T10221167 11017 21089 58016
KPVD 211651Z COR 01007KT 10SM FEW025 M03/M16 A3046 RMK AO2 SLP315 T10281161
KPVD 211551Z 01006KT 10SM FEW025 M03/M16 A3048 RMK AO2 SLP320 T10331156
KPVD 211451Z 01011KT 10SM CLR M05/M17 A3048 RMK AO2 SLP321 T10501172 50011
KPVD 211351Z 01016KT 10SM FEW045 M07/M19 A3048 RMK AO2 SLP321 T10671189
KPVD 211251Z 01014G21KT 10SM FEW040 FEW300 M08/M18 A3047 RMK AO2 SLP318 T10781183
KPVD 211151Z 36010KT 10SM FEW035 FEW300 M09/M18 A3045 RMK AO2 SLP310 T10891178 11056 21089 53006
KPVD 211051Z 36010KT 10SM FEW300 M08/M17 A3043 RMK AO2 SLP305 T10831172
KPVD 210951Z 34010KT 10SM CLR M08/M17 A3043 RMK AO2 SLP304 T10781172
KPVD 210851Z 35014G18KT 10SM CLR M07/M17 A3043 RMK AO2 SLP303 T10721167 58000
KPVD 210751Z 35009KT 10SM CLR M07/M15 A3043 RMK AO2 SLP304 T10671150
KPVD 210651Z 34007KT 10SM CLR M06/M15 A3043 RMK AO2 SLP305 T10611150
KPVD 210551Z 34007KT 10SM CLR M06/M16 A3043 RMK AO2 SLP304 T10561156 11017 21056 51002
KPVD 210451Z 33005KT 10SM SCT250 M06/M15 A3042 RMK AO2 SLP302 LAST T10561150 400221056
KPVD 210351Z 33010KT 10SM SCT250 M04/M15 A3043 RMK AO2 SLP304 T10441150
KPVD 210251Z 32010KT 10SM SCT250 M03/M16 A3042 RMK AO2 SLP301 T10331161 51009
KPVD 210151Z 32007KT 10SM FEW150 SCT250 M03/M15 A3041 RMK AO2 SLP298 T10281150
KPVD 210051Z 34006KT 10SM FEW150 SCT250 M02/M13 A3041 RMK AO2 SLP296 T10221133